sensor_id;sensor_type;location;lat;lon;timestamp;P1;durP1;ratioP1;P2;durP2;ratioP2
51479;SDS011;37556;44.570;18.612;2024-03-23T05:42:15;6.18;;;4.80;;
51479;SDS011;37556;44.570;18.612;2024-03-23T05:44:43;6.60;;;5.60;;
51479;SDS011;37556;44.570;18.612;2024-03-23T05:47:09;17.35;;;9.35;;
51479;SDS011;37556;44.570;18.612;2024-03-23T05:49:35;9.00;;;6.53;;
51479;SDS011;37556;44.570;18.612;2024-03-23T05:52:01;1.52;;;1.42;;
51479;SDS011;37556;44.570;18.612;2024-03-23T05:54:29;3.85;;;3.20;;
51479;SDS011;37556;44.570;18.612;2024-03-23T05:56:55;9.13;;;4.53;;
51479;SDS011;37556;44.570;18.612;2024-03-23T05:59:21;6.40;;;3.92;;
51479;SDS011;37556;44.570;18.612;2024-03-23T06:01:47;4.25;;;3.72;;
51479;SDS011;37556;44.570;18.612;2024-03-23T06:04:14;5.28;;;3.63;;
51479;SDS011;37556;44.570;18.612;2024-03-23T06:06:40;9.07;;;5.75;;
51479;SDS011;37556;44.570;18.612;2024-03-23T06:09:06;4.82;;;4.13;;
51479;SDS011;37556;44.570;18.612;2024-03-23T06:11:32;3.55;;;3.25;;
51479;SDS011;37556;44.570;18.612;2024-03-23T06:13:58;9.88;;;5.57;;
51479;SDS011;37556;44.570;18.612;2024-03-23T06:16:24;7.28;;;4.47;;
51479;SDS011;37556;44.570;18.612;2024-03-23T06:18:52;9.43;;;3.78;;
51479;SDS011;37556;44.570;18.612;2024-03-23T06:21:19;3.50;;;3.30;;
51479;SDS011;37556;44.570;18.612;2024-03-23T06:23:45;1.25;;;1.25;;
51479;SDS011;37556;44.570;18.612;2024-03-23T06:26:18;8.32;;;4.43;;
51479;SDS011;37556;44.570;18.612;2024-03-23T06:28:45;3.38;;;2.75;;
51479;SDS011;37556;44.570;18.612;2024-03-23T06:31:11;2.53;;;2.42;;
51479;SDS011;37556;44.570;18.612;2024-03-23T06:36:06;7.32;;;2.38;;
51479;SDS011;37556;44.570;18.612;2024-03-23T06:38:32;1.63;;;1.52;;
51479;SDS011;37556;44.570;18.612;2024-03-23T06:43:24;2.50;;;2.40;;
51479;SDS011;37556;44.570;18.612;2024-03-23T06:48:17;4.72;;;1.88;;
51479;SDS011;37556;44.570;18.612;2024-03-23T06:50:43;2.45;;;2.30;;
51479;SDS011;37556;44.570;18.612;2024-03-23T06:55:35;4.50;;;2.15;;
51479;SDS011;37556;44.570;18.612;2024-03-23T07:00:28;4.27;;;4.03;;
51479;SDS011;37556;44.570;18.612;2024-03-23T07:05:20;5.47;;;3.03;;
51479;SDS011;37556;44.570;18.612;2024-03-23T07:10:12;3.58;;;2.90;;
51479;SDS011;37556;44.570;18.612;2024-03-23T07:15:04;1.98;;;1.20;;
51479;SDS011;37556;44.570;18.612;2024-03-23T07:17:30;1.48;;;1.38;;
51479;SDS011;37556;44.570;18.612;2024-03-23T07:19:58;2.97;;;2.78;;
51479;SDS011;37556;44.570;18.612;2024-03-23T07:22:26;12.95;;;3.83;;
51479;SDS011;37556;44.570;18.612;2024-03-23T07:27:18;2.38;;;2.28;;
51479;SDS011;37556;44.570;18.612;2024-03-23T07:32:10;2.05;;;1.95;;
51479;SDS011;37556;44.570;18.612;2024-03-23T07:34:36;1.00;;;1.00;;
51479;SDS011;37556;44.570;18.612;2024-03-23T07:39:28;4.13;;;2.53;;
51479;SDS011;37556;44.570;18.612;2024-03-23T07:41:57;2.70;;;2.22;;
51479;SDS011;37556;44.570;18.612;2024-03-23T07:46:50;1.63;;;1.52;;
51479;SDS011;37556;44.570;18.612;2024-03-23T07:51:43;2.70;;;1.73;;
51479;SDS011;37556;44.570;18.612;2024-03-23T07:54:09;2.28;;;2.17;;
51479;SDS011;37556;44.570;18.612;2024-03-23T07:56:36;2.67;;;2.50;;
51479;SDS011;37556;44.570;18.612;2024-03-23T08:01:30;5.65;;;4.68;;
51479;SDS011;37556;44.570;18.612;2024-03-23T08:06:23;1.30;;;1.30;;
51479;SDS011;37556;44.570;18.612;2024-03-23T08:08:51;1.92;;;0.68;;
51479;SDS011;37556;44.570;18.612;2024-03-23T08:11:27;1.48;;;1.38;;
51479;SDS011;37556;44.570;18.612;2024-03-23T08:13:54;12.70;;;4.13;;
51479;SDS011;37556;44.570;18.612;2024-03-23T08:16:20;1.67;;;1.48;;
51479;SDS011;37556;44.570;18.612;2024-03-23T08:18:46;2.28;;;2.13;;
51479;SDS011;37556;44.570;18.612;2024-03-23T08:21:12;7.10;;;1.23;;
51479;SDS011;37556;44.570;18.612;2024-03-23T08:23:39;1.58;;;1.27;;
51479;SDS011;37556;44.570;18.612;2024-03-23T08:26:12;0.90;;;0.90;;
51479;SDS011;37556;44.570;18.612;2024-03-23T08:28:38;0.85;;;0.85;;
51479;SDS011;37556;44.570;18.612;2024-03-23T08:31:08;1.80;;;1.70;;
51479;SDS011;37556;44.570;18.612;2024-03-23T08:33:34;1.25;;;1.25;;
51479;SDS011;37556;44.570;18.612;2024-03-23T08:36:01;1.08;;;0.98;;
51479;SDS011;37556;44.570;18.612;2024-03-23T08:38:28;0.95;;;0.88;;
51479;SDS011;37556;44.570;18.612;2024-03-23T08:40:57;1.20;;;0.70;;
51479;SDS011;37556;44.570;18.612;2024-03-23T08:43:24;1.52;;;1.42;;
51479;SDS011;37556;44.570;18.612;2024-03-23T08:45:50;1.75;;;1.65;;
51479;SDS011;37556;44.570;18.612;2024-03-23T08:48:17;4.38;;;1.40;;
51479;SDS011;37556;44.570;18.612;2024-03-23T08:50:44;1.92;;;1.83;;
51479;SDS011;37556;44.570;18.612;2024-03-23T08:53:10;1.15;;;1.05;;
51479;SDS011;37556;44.570;18.612;2024-03-23T08:55:36;3.03;;;2.75;;
51479;SDS011;37556;44.570;18.612;2024-03-23T08:58:02;3.20;;;0.98;;
51479;SDS011;37556;44.570;18.612;2024-03-23T09:00:29;2.05;;;1.95;;
51479;SDS011;37556;44.570;18.612;2024-03-23T09:02:55;2.03;;;1.92;;
51479;SDS011;37556;44.570;18.612;2024-03-23T09:05:22;7.10;;;3.95;;
51479;SDS011;37556;44.570;18.612;2024-03-23T09:07:49;1.98;;;1.85;;
51479;SDS011;37556;44.570;18.612;2024-03-23T09:10:15;2.35;;;2.17;;
51479;SDS011;37556;44.570;18.612;2024-03-23T09:12:41;2.42;;;1.90;;
51479;SDS011;37556;44.570;18.612;2024-03-23T09:15:07;1.65;;;1.55;;
51479;SDS011;37556;44.570;18.612;2024-03-23T09:17:33;2.05;;;1.58;;
51479;SDS011;37556;44.570;18.612;2024-03-23T09:20:00;1.25;;;0.93;;
51479;SDS011;37556;44.570;18.612;2024-03-23T09:22:26;2.88;;;1.77;;
51479;SDS011;37556;44.570;18.612;2024-03-23T09:24:52;0.80;;;0.77;;
51479;SDS011;37556;44.570;18.612;2024-03-23T09:27:18;0.68;;;0.68;;
51479;SDS011;37556;44.570;18.612;2024-03-23T09:29:44;0.93;;;0.93;;
51479;SDS011;37556;44.570;18.612;2024-03-23T09:32:10;2.45;;;1.75;;
51479;SDS011;37556;44.570;18.612;2024-03-23T09:34:36;1.90;;;1.58;;
51479;SDS011;37556;44.570;18.612;2024-03-23T09:37:02;1.23;;;0.93;;
51479;SDS011;37556;44.570;18.612;2024-03-23T09:39:28;1.23;;;1.17;;
51479;SDS011;37556;44.570;18.612;2024-03-23T09:41:58;2.80;;;2.05;;
51479;SDS011;37556;44.570;18.612;2024-03-23T09:44:24;0.70;;;0.70;;
51479;SDS011;37556;44.570;18.612;2024-03-23T09:46:51;1.30;;;1.30;;
51479;SDS011;37556;44.570;18.612;2024-03-23T09:49:17;0.65;;;0.65;;
51479;SDS011;37556;44.570;18.612;2024-03-23T09:51:43;0.77;;;0.77;;
51479;SDS011;37556;44.570;18.612;2024-03-23T09:54:10;0.73;;;0.55;;
51479;SDS011;37556;44.570;18.612;2024-03-23T09:56:36;1.23;;;1.23;;
51479;SDS011;37556;44.570;18.612;2024-03-23T09:59:02;0.77;;;0.77;;
51479;SDS011;37556;44.570;18.612;2024-03-23T10:01:31;1.20;;;1.10;;
51479;SDS011;37556;44.570;18.612;2024-03-23T10:03:57;18.25;;;1.45;;
51479;SDS011;37556;44.570;18.612;2024-03-23T10:06:23;1.00;;;0.68;;
51479;SDS011;37556;44.570;18.612;2024-03-23T10:08:50;1.10;;;0.50;;
51479;SDS011;37556;44.570;18.612;2024-03-23T10:11:16;1.45;;;1.35;;
51479;SDS011;37556;44.570;18.612;2024-03-23T10:13:44;1.90;;;1.85;;
51479;SDS011;37556;44.570;18.612;2024-03-23T10:16:20;0.95;;;0.70;;
51479;SDS011;37556;44.570;18.612;2024-03-23T10:18:47;1.05;;;0.88;;
51479;SDS011;37556;44.570;18.612;2024-03-23T10:21:14;0.90;;;0.77;;
51479;SDS011;37556;44.570;18.612;2024-03-23T10:23:43;1.58;;;1.30;;
51479;SDS011;37556;44.570;18.612;2024-03-23T10:26:20;0.20;;;0.20;;
51479;SDS011;37556;44.570;18.612;2024-03-23T10:31:12;0.80;;;0.80;;
51479;SDS011;37556;44.570;18.612;2024-03-23T10:33:43;0.85;;;0.77;;
51479;SDS011;37556;44.570;18.612;2024-03-23T10:36:10;0.95;;;0.95;;
51479;SDS011;37556;44.570;18.612;2024-03-23T10:38:36;0.77;;;0.77;;
51479;SDS011;37556;44.570;18.612;2024-03-23T10:41:03;1.58;;;1.50;;
51479;SDS011;37556;44.570;18.612;2024-03-23T10:43:30;1.20;;;1.20;;
51479;SDS011;37556;44.570;18.612;2024-03-23T10:45:57;0.85;;;0.70;;
51479;SDS011;37556;44.570;18.612;2024-03-23T10:48:23;1.10;;;1.08;;
51479;SDS011;37556;44.570;18.612;2024-03-23T10:50:50;0.75;;;0.75;;
51479;SDS011;37556;44.570;18.612;2024-03-23T10:53:16;0.82;;;0.73;;
51479;SDS011;37556;44.570;18.612;2024-03-23T10:55:43;1.70;;;0.82;;
51479;SDS011;37556;44.570;18.612;2024-03-23T10:58:09;0.77;;;0.52;;
51479;SDS011;37556;44.570;18.612;2024-03-23T11:00:37;4.75;;;0.95;;
51479;SDS011;37556;44.570;18.612;2024-03-23T11:05:49;0.75;;;0.75;;
51479;SDS011;37556;44.570;18.612;2024-03-23T11:08:29;0.30;;;0.30;;
51479;SDS011;37556;44.570;18.612;2024-03-23T11:11:11;2.42;;;1.52;;
51479;SDS011;37556;44.570;18.612;2024-03-23T11:13:38;0.55;;;0.55;;
51479;SDS011;37556;44.570;18.612;2024-03-23T11:16:16;3.63;;;0.90;;
51479;SDS011;37556;44.570;18.612;2024-03-23T11:18:42;0.30;;;0.30;;
51479;SDS011;37556;44.570;18.612;2024-03-23T11:21:09;0.15;;;0.15;;
51479;SDS011;37556;44.570;18.612;2024-03-23T11:23:35;0.40;;;0.40;;
51479;SDS011;37556;44.570;18.612;2024-03-23T11:26:01;0.85;;;0.65;;
51479;SDS011;37556;44.570;18.612;2024-03-23T11:28:28;0.47;;;0.47;;
51479;SDS011;37556;44.570;18.612;2024-03-23T11:30:55;0.80;;;0.73;;
51479;SDS011;37556;44.570;18.612;2024-03-23T11:33:21;0.47;;;0.47;;
51479;SDS011;37556;44.570;18.612;2024-03-23T11:35:47;2.83;;;1.13;;
51479;SDS011;37556;44.570;18.612;2024-03-23T11:38:14;5.18;;;1.33;;
51479;SDS011;37556;44.570;18.612;2024-03-23T11:40:44;0.80;;;0.80;;
51479;SDS011;37556;44.570;18.612;2024-03-23T11:43:14;0.93;;;0.93;;
51479;SDS011;37556;44.570;18.612;2024-03-23T11:48:07;0.03;;;0.03;;
51479;SDS011;37556;44.570;18.612;2024-03-23T11:50:35;1.05;;;1.05;;
51479;SDS011;37556;44.570;18.612;2024-03-23T11:55:41;0.75;;;0.75;;
51479;SDS011;37556;44.570;18.612;2024-03-23T11:58:08;1.13;;;1.02;;
51479;SDS011;37556;44.570;18.612;2024-03-23T12:00:34;1.00;;;1.00;;
51479;SDS011;37556;44.570;18.612;2024-03-23T12:03:03;0.38;;;0.38;;
51479;SDS011;37556;44.570;18.612;2024-03-23T12:05:30;0.13;;;0.13;;
51479;SDS011;37556;44.570;18.612;2024-03-23T12:08:16;0.50;;;0.50;;
51479;SDS011;37556;44.570;18.612;2024-03-23T12:10:44;0.63;;;0.63;;
51479;SDS011;37556;44.570;18.612;2024-03-23T12:13:11;0.35;;;0.30;;
51479;SDS011;37556;44.570;18.612;2024-03-23T12:15:37;0.40;;;0.40;;
51479;SDS011;37556;44.570;18.612;2024-03-23T12:18:09;0.30;;;0.30;;
51479;SDS011;37556;44.570;18.612;2024-03-23T12:20:38;0.50;;;0.50;;
51479;SDS011;37556;44.570;18.612;2024-03-23T12:23:11;1.02;;;0.98;;
51479;SDS011;37556;44.570;18.612;2024-03-23T12:25:38;1.58;;;1.38;;
51479;SDS011;37556;44.570;18.612;2024-03-23T12:28:05;2.72;;;2.00;;
51479;SDS011;37556;44.570;18.612;2024-03-23T12:30:32;0.75;;;0.75;;
51479;SDS011;37556;44.570;18.612;2024-03-23T12:32:58;0.88;;;0.75;;
51479;SDS011;37556;44.570;18.612;2024-03-23T12:35:24;0.43;;;0.43;;
51479;SDS011;37556;44.570;18.612;2024-03-23T12:37:50;1.00;;;1.00;;
51479;SDS011;37556;44.570;18.612;2024-03-23T12:40:17;2.42;;;0.98;;
51479;SDS011;37556;44.570;18.612;2024-03-23T12:42:43;0.70;;;0.70;;
51479;SDS011;37556;44.570;18.612;2024-03-23T12:45:09;1.40;;;1.30;;
51479;SDS011;37556;44.570;18.612;2024-03-23T12:47:35;0.32;;;0.32;;
51479;SDS011;37556;44.570;18.612;2024-03-23T12:50:01;1.75;;;1.02;;
51479;SDS011;37556;44.570;18.612;2024-03-23T12:52:28;3.10;;;1.17;;
51479;SDS011;37556;44.570;18.612;2024-03-23T12:54:55;1.13;;;1.13;;
51479;SDS011;37556;44.570;18.612;2024-03-23T12:57:22;0.60;;;0.60;;
51479;SDS011;37556;44.570;18.612;2024-03-23T12:59:49;1.38;;;1.27;;
51479;SDS011;37556;44.570;18.612;2024-03-23T13:02:17;0.77;;;0.77;;
51479;SDS011;37556;44.570;18.612;2024-03-23T13:04:43;0.85;;;0.77;;
51479;SDS011;37556;44.570;18.612;2024-03-23T13:07:09;1.02;;;0.95;;
51479;SDS011;37556;44.570;18.612;2024-03-23T13:09:36;0.77;;;0.77;;
51479;SDS011;37556;44.570;18.612;2024-03-23T13:12:02;0.75;;;0.75;;
51479;SDS011;37556;44.570;18.612;2024-03-23T13:14:28;1.90;;;0.80;;
51479;SDS011;37556;44.570;18.612;2024-03-23T13:16:54;0.40;;;0.40;;
51479;SDS011;37556;44.570;18.612;2024-03-23T13:19:20;0.40;;;0.40;;
51479;SDS011;37556;44.570;18.612;2024-03-23T13:21:51;1.75;;;0.60;;
51479;SDS011;37556;44.570;18.612;2024-03-23T13:24:17;1.20;;;1.10;;
51479;SDS011;37556;44.570;18.612;2024-03-23T13:26:44;0.55;;;0.55;;
51479;SDS011;37556;44.570;18.612;2024-03-23T13:29:10;0.70;;;0.70;;
51479;SDS011;37556;44.570;18.612;2024-03-23T13:31:36;0.70;;;0.65;;
51479;SDS011;37556;44.570;18.612;2024-03-23T13:34:02;1.25;;;1.15;;
51479;SDS011;37556;44.570;18.612;2024-03-23T13:36:28;1.40;;;0.85;;
51479;SDS011;37556;44.570;18.612;2024-03-23T13:38:54;0.20;;;0.20;;
51479;SDS011;37556;44.570;18.612;2024-03-23T13:41:20;1.20;;;1.20;;
51479;SDS011;37556;44.570;18.612;2024-03-23T13:43:46;0.93;;;0.93;;
51479;SDS011;37556;44.570;18.612;2024-03-23T13:46:12;0.52;;;0.52;;
51479;SDS011;37556;44.570;18.612;2024-03-23T13:48:38;0.65;;;0.65;;
51479;SDS011;37556;44.570;18.612;2024-03-23T13:51:07;0.63;;;0.60;;
51479;SDS011;37556;44.570;18.612;2024-03-23T13:53:33;0.88;;;0.88;;
51479;SDS011;37556;44.570;18.612;2024-03-23T13:55:59;0.40;;;0.28;;
51479;SDS011;37556;44.570;18.612;2024-03-23T13:58:25;0.32;;;0.20;;
51479;SDS011;37556;44.570;18.612;2024-03-23T14:00:52;0.40;;;0.40;;
51479;SDS011;37556;44.570;18.612;2024-03-23T14:03:18;0.17;;;0.17;;
51479;SDS011;37556;44.570;18.612;2024-03-23T14:05:44;0.40;;;0.40;;
51479;SDS011;37556;44.570;18.612;2024-03-23T14:08:12;0.52;;;0.52;;
51479;SDS011;37556;44.570;18.612;2024-03-23T14:10:41;0.85;;;0.85;;
51479;SDS011;37556;44.570;18.612;2024-03-23T14:13:08;1.67;;;1.50;;
51479;SDS011;37556;44.570;18.612;2024-03-23T14:15:34;2.05;;;1.65;;
51479;SDS011;37556;44.570;18.612;2024-03-23T14:18:02;2.05;;;1.95;;
51479;SDS011;37556;44.570;18.612;2024-03-23T14:20:29;1.42;;;1.38;;
51479;SDS011;37556;44.570;18.612;2024-03-23T14:22:55;1.00;;;1.00;;
51479;SDS011;37556;44.570;18.612;2024-03-23T14:25:21;0.43;;;0.43;;
51479;SDS011;37556;44.570;18.612;2024-03-23T14:27:52;1.13;;;1.13;;
51479;SDS011;37556;44.570;18.612;2024-03-23T14:30:18;1.30;;;0.90;;
51479;SDS011;37556;44.570;18.612;2024-03-23T14:32:44;0.65;;;0.65;;
51479;SDS011;37556;44.570;18.612;2024-03-23T14:35:10;0.95;;;0.93;;
51479;SDS011;37556;44.570;18.612;2024-03-23T14:37:37;0.70;;;0.70;;
51479;SDS011;37556;44.570;18.612;2024-03-23T14:40:03;2.95;;;1.45;;
51479;SDS011;37556;44.570;18.612;2024-03-23T14:42:30;0.68;;;0.68;;
51479;SDS011;37556;44.570;18.612;2024-03-23T14:44:59;1.30;;;0.85;;
51479;SDS011;37556;44.570;18.612;2024-03-23T14:47:25;10.23;;;0.95;;
51479;SDS011;37556;44.570;18.612;2024-03-23T14:49:51;0.50;;;0.50;;
51479;SDS011;37556;44.570;18.612;2024-03-23T14:52:18;0.95;;;0.95;;
51479;SDS011;37556;44.570;18.612;2024-03-23T14:54:44;0.50;;;0.50;;
51479;SDS011;37556;44.570;18.612;2024-03-23T14:57:11;0.77;;;0.77;;
51479;SDS011;37556;44.570;18.612;2024-03-23T14:59:37;0.73;;;0.73;;
51479;SDS011;37556;44.570;18.612;2024-03-23T15:02:04;0.70;;;0.70;;
51479;SDS011;37556;44.570;18.612;2024-03-23T15:04:30;0.52;;;0.52;;
51479;SDS011;37556;44.570;18.612;2024-03-23T15:06:56;0.73;;;0.68;;
51479;SDS011;37556;44.570;18.612;2024-03-23T15:09:22;0.32;;;0.32;;
51479;SDS011;37556;44.570;18.612;2024-03-23T15:11:48;1.10;;;1.10;;
51479;SDS011;37556;44.570;18.612;2024-03-23T15:14:14;0.52;;;0.52;;
51479;SDS011;37556;44.570;18.612;2024-03-23T15:16:40;0.80;;;0.80;;
51479;SDS011;37556;44.570;18.612;2024-03-23T15:19:09;0.75;;;0.75;;
51479;SDS011;37556;44.570;18.612;2024-03-23T15:21:35;1.20;;;1.15;;
51479;SDS011;37556;44.570;18.612;2024-03-23T15:24:02;0.70;;;0.68;;
51479;SDS011;37556;44.570;18.612;2024-03-23T15:26:28;1.05;;;1.05;;
51479;SDS011;37556;44.570;18.612;2024-03-23T15:28:54;0.32;;;0.32;;
51479;SDS011;37556;44.570;18.612;2024-03-23T15:31:23;1.13;;;1.08;;
51479;SDS011;37556;44.570;18.612;2024-03-23T15:33:50;0.43;;;0.43;;
51479;SDS011;37556;44.570;18.612;2024-03-23T15:36:16;0.28;;;0.28;;
51479;SDS011;37556;44.570;18.612;2024-03-23T15:38:42;0.50;;;0.50;;
51479;SDS011;37556;44.570;18.612;2024-03-23T15:41:08;1.65;;;1.45;;
51479;SDS011;37556;44.570;18.612;2024-03-23T15:43:35;1.00;;;1.00;;
51479;SDS011;37556;44.570;18.612;2024-03-23T15:46:05;0.45;;;0.45;;
51479;SDS011;37556;44.570;18.612;2024-03-23T15:48:31;0.95;;;0.90;;
51479;SDS011;37556;44.570;18.612;2024-03-23T15:51:00;0.77;;;0.77;;
51479;SDS011;37556;44.570;18.612;2024-03-23T15:53:26;2.00;;;1.90;;
51479;SDS011;37556;44.570;18.612;2024-03-23T15:55:59;1.67;;;1.58;;
51479;SDS011;37556;44.570;18.612;2024-03-23T15:58:26;0.65;;;0.65;;
51479;SDS011;37556;44.570;18.612;2024-03-23T16:03:21;0.98;;;0.98;;
51479;SDS011;37556;44.570;18.612;2024-03-23T16:05:51;1.75;;;1.65;;
51479;SDS011;37556;44.570;18.612;2024-03-23T16:08:17;3.22;;;2.30;;
51479;SDS011;37556;44.570;18.612;2024-03-23T16:10:43;1.00;;;0.85;;
51479;SDS011;37556;44.570;18.612;2024-03-23T16:13:09;0.98;;;0.98;;
51479;SDS011;37556;44.570;18.612;2024-03-23T16:15:35;7.88;;;1.38;;
51479;SDS011;37556;44.570;18.612;2024-03-23T16:18:01;0.63;;;0.63;;
51479;SDS011;37556;44.570;18.612;2024-03-23T16:20:27;1.55;;;1.30;;
51479;SDS011;37556;44.570;18.612;2024-03-23T16:22:54;0.73;;;0.65;;
51479;SDS011;37556;44.570;18.612;2024-03-23T16:25:20;0.95;;;0.85;;
51479;SDS011;37556;44.570;18.612;2024-03-23T16:27:46;1.67;;;1.13;;
51479;SDS011;37556;44.570;18.612;2024-03-23T16:30:12;1.65;;;1.08;;
51479;SDS011;37556;44.570;18.612;2024-03-23T16:32:39;7.18;;;0.95;;
51479;SDS011;37556;44.570;18.612;2024-03-23T16:35:05;5.28;;;0.95;;
51479;SDS011;37556;44.570;18.612;2024-03-23T16:37:34;3.08;;;0.80;;
51479;SDS011;37556;44.570;18.612;2024-03-23T16:40:00;2.13;;;1.95;;
51479;SDS011;37556;44.570;18.612;2024-03-23T16:42:27;3.83;;;2.08;;
51479;SDS011;37556;44.570;18.612;2024-03-23T16:44:53;1.88;;;0.70;;
51479;SDS011;37556;44.570;18.612;2024-03-23T16:47:19;1.33;;;1.05;;
51479;SDS011;37556;44.570;18.612;2024-03-23T16:49:45;0.43;;;0.43;;
51479;SDS011;37556;44.570;18.612;2024-03-23T16:54:37;1.38;;;0.77;;
51479;SDS011;37556;44.570;18.612;2024-03-23T16:57:04;1.85;;;1.27;;
51479;SDS011;37556;44.570;18.612;2024-03-23T16:59:30;0.52;;;0.50;;
51479;SDS011;37556;44.570;18.612;2024-03-23T17:04:22;3.53;;;0.85;;
51479;SDS011;37556;44.570;18.612;2024-03-23T17:06:48;2.50;;;1.58;;
51479;SDS011;37556;44.570;18.612;2024-03-23T17:09:15;1.52;;;1.45;;
51479;SDS011;37556;44.570;18.612;2024-03-23T17:11:41;2.63;;;0.88;;
51479;SDS011;37556;44.570;18.612;2024-03-23T17:14:11;5.70;;;1.80;;
51479;SDS011;37556;44.570;18.612;2024-03-23T17:16:38;1.65;;;1.55;;
51479;SDS011;37556;44.570;18.612;2024-03-23T17:19:04;1.60;;;1.48;;
51479;SDS011;37556;44.570;18.612;2024-03-23T17:21:30;2.28;;;1.88;;
51479;SDS011;37556;44.570;18.612;2024-03-23T17:26:26;1.67;;;1.23;;
51479;SDS011;37556;44.570;18.612;2024-03-23T17:28:52;2.10;;;1.40;;
51479;SDS011;37556;44.570;18.612;2024-03-23T17:31:19;4.75;;;2.40;;
51479;SDS011;37556;44.570;18.612;2024-03-23T17:33:45;4.38;;;3.13;;
51479;SDS011;37556;44.570;18.612;2024-03-23T17:36:15;11.57;;;3.97;;
51479;SDS011;37556;44.570;18.612;2024-03-23T17:38:41;4.43;;;2.22;;
51479;SDS011;37556;44.570;18.612;2024-03-23T17:41:07;1.55;;;1.50;;
51479;SDS011;37556;44.570;18.612;2024-03-23T17:43:37;3.55;;;3.25;;
51479;SDS011;37556;44.570;18.612;2024-03-23T17:48:30;5.68;;;2.88;;
51479;SDS011;37556;44.570;18.612;2024-03-23T17:51:00;2.17;;;2.08;;
51479;SDS011;37556;44.570;18.612;2024-03-23T17:53:26;1.83;;;1.73;;
